Linkwood, Maryland
Current Conditions -  °F | °C
As of 7:01 PM on Sunday 23 Nov 2014 (Local Time) from KCGE Reporting Station
Scattered Clouds Scattered Clouds  
Wind Chill: 55°   Ceiling: Unl
Heat Index: 55°   Visibility: 10mi
Dew Point: 48°   Wind: 8mph
Humidity: 77%   Direction: 130°SE
Pressure: 30.05"   Gusts: NA
Location:  38.54°N, 75.95°W
Report Text: KCGE 240001Z AUTO 13007KT 10SM SCT039 SCT050 13/09 A3005 RMK AO1
Loading
Personal Weather Stations






























Interactive Weather Map New forecast layout! Learn more

10-Day Weather Forecast

Advertisements
Track Severe Weather on mobile